Time;durP1;ratioP1;P1;durP2;ratioP2;P2;SDS_P1;SDS_P2;PMS_P1;PMS_P2;Temp;Humidity;BMP_temperature;BMP_pressure;BME280_temperature;BME280_humidity;BME280_pressure;Samples;Min_cycle;Max_cycle;Signal;HPM_P1;HPM_P2
2021/08/30 00:01:47;;;;;;;25.80;9.00;;;;;;;15.28;87.24;100444.70;5002128;59;21189;-80
2021/08/30 00:06:53;;;;;;;55.27;7.40;;;;;;;15.29;86.90;100448.55;5001877;59;21185;-81
2021/08/30 00:11:59;;;;;;;32.50;9.13;;;;;;;15.29;86.87;100441.88;5001852;59;21197;-80
2021/08/30 00:17:05;;;;;;;17.47;8.83;;;;;;;15.31;87.10;100443.06;5001759;59;21214;-80
2021/08/30 00:22:11;;;;;;;16.13;8.00;;;;;;;15.33;86.80;100441.09;4998715;59;22146;-80
2021/08/30 00:27:17;;;;;;;40.37;8.37;;;;;;;15.31;86.72;100442.58;4997573;59;21529;-80
2021/08/30 00:32:23;;;;;;;34.13;7.80;;;;;;;15.26;86.83;100442.70;4997590;59;21226;-79
2021/08/30 00:37:28;;;;;;;31.30;7.07;;;;;;;15.24;87.29;100444.68;4987017;59;21154;-79
2021/08/30 00:42:35;;;;;;;13.13;6.27;;;;;;;15.23;87.34;100448.33;4985027;59;21121;-79
2021/08/30 00:47:46;;;;;;;16.83;6.03;;;;;;;15.27;87.43;100448.38;4984958;59;21186;-79
2021/08/30 00:52:53;;;;;;;9.83;6.97;;;;;;;15.30;87.49;100441.39;4984939;59;21190;-80
2021/08/30 00:57:58;;;;;;;26.53;6.63;;;;;;;15.35;87.63;100446.63;4984951;59;21214;-79
2021/08/30 01:03:04;;;;;;;25.00;6.00;;;;;;;15.31;87.26;100452.39;4984790;59;21593;-79
2021/08/30 01:08:20;;;;;;;18.20;5.20;;;;;;;15.26;87.54;100456.03;4984930;59;21214;-79
2021/08/30 01:14:03;;;;;;;8.73;4.83;;;;;;;15.20;87.60;100458.78;4984838;59;21123;-80
2021/08/30 01:19:12;;;;;;;4.77;4.27;;;;;;;15.13;87.77;100467.86;4985162;59;21505;-79
2021/08/30 01:24:20;;;;;;;6.70;5.33;;;;;;;15.23;88.22;100473.64;4988788;59;21130;-80
2021/08/30 01:29:48;;;;;;;6.93;5.50;;;;;;;15.30;88.23;100478.70;4989085;59;21563;-79
2021/08/30 01:34:55;;;;;;;7.77;4.77;;;;;;;15.34;88.36;100484.08;4980764;59;21178;-80
2021/08/30 01:40:03;;;;;;;5.63;4.87;;;;;;;15.41;88.39;100490.00;5001666;59;21174;-79
2021/08/30 01:45:13;;;;;;;4.93;4.40;;;;;;;15.39;87.79;100491.98;5001716;59;21181;-78
2021/08/30 01:50:21;;;;;;;7.40;5.13;;;;;;;15.43;88.30;100481.33;5001685;59;21153;-79
2021/08/30 01:55:48;;;;;;;9.30;5.23;;;;;;;15.41;87.98;100478.50;5001550;59;21185;-79
2021/08/30 02:00:53;;;;;;;10.23;5.57;;;;;;;15.35;88.16;100481.76;5001579;59;21694;-80
2021/08/30 02:06:06;;;;;;;6.37;5.77;;;;;;;15.33;88.39;100473.07;5001389;59;21226;-80
2021/08/30 02:11:14;;;;;;;9.00;6.10;;;;;;;15.37;88.37;100477.95;5001302;59;21524;-79
2021/08/30 02:16:20;;;;;;;7.83;6.53;;;;;;;15.37;88.31;100477.95;5001431;59;21216;-79
2021/08/30 02:21:42;;;;;;;7.40;6.43;;;;;;;15.35;88.22;100463.10;4999193;59;21289;-79
2021/08/30 02:27:04;;;;;;;6.80;6.10;;;;;;;15.33;88.45;100455.26;4993617;59;21170;-80
2021/08/30 02:32:10;;;;;;;7.00;5.70;;;;;;;15.32;88.30;100458.91;4992913;59;21182;-79
2021/08/30 02:37:17;;;;;;;12.80;6.03;;;;;;;15.36;88.47;100455.45;4997050;59;21123;-79
2021/08/30 02:42:24;;;;;;;6.67;5.93;;;;;;;15.45;88.54;100451.38;4997071;59;21194;-79
2021/08/30 02:47:33;;;;;;;10.90;7.93;;;;;;;15.51;88.48;100444.61;4997345;59;21218;-79
2021/08/30 02:52:43;;;;;;;9.07;6.53;;;;;;;15.51;88.08;100447.27;4997165;59;21280;-79
2021/08/30 02:57:49;;;;;;;10.13;7.97;;;;;;;15.44;87.53;100444.36;4997185;59;21122;-79
2021/08/30 03:02:55;;;;;;;7.80;7.00;;;;;;;15.44;87.89;100444.86;4997010;59;22255;-80
2021/08/30 03:08:02;;;;;;;7.60;6.77;;;;;;;15.32;87.31;100446.08;4997177;59;21524;-80
2021/08/30 03:13:09;;;;;;;9.57;8.33;;;;;;;15.16;87.37;100445.41;4996968;59;22050;-79
2021/08/30 03:18:16;;;;;;;7.77;7.00;;;;;;;15.01;87.65;100435.77;4997304;59;21131;-79
2021/08/30 03:23:23;;;;;;;10.53;6.77;;;;;;;14.96;88.05;100447.37;4990458;59;21217;-83
2021/08/30 03:28:30;;;;;;;6.57;5.97;;;;;;;14.97;88.52;100437.04;4951104;59;21135;-83
2021/08/30 03:33:37;;;;;;;6.33;5.73;;;;;;;14.99;88.50;100439.06;4925299;59;21274;-84
2021/08/30 03:38:44;;;;;;;5.70;5.10;;;;;;;14.95;88.45;100436.38;4953526;59;21205;-81
2021/08/30 03:43:52;;;;;;;8.40;6.07;;;;;;;14.91;88.68;100437.66;4918616;59;21510;-81
2021/08/30 03:48:59;;;;;;;7.57;6.70;;;;;;;14.83;88.89;100430.05;4969615;59;21197;-84
2021/08/30 03:54:06;;;;;;;8.80;7.03;;;;;;;14.76;88.90;100428.00;4989393;59;21186;-83
2021/08/30 03:59:13;;;;;;;13.17;8.00;;;;;;;14.76;89.10;100421.83;4989389;59;21205;-83
2021/08/30 04:04:22;;;;;;;11.03;8.83;;;;;;;14.80;89.40;100421.05;4926244;59;21222;-82
2021/08/30 04:09:28;;;;;;;12.73;9.07;;;;;;;14.82;89.41;100429.73;4911340;60;21227;-83
2021/08/30 04:14:34;;;;;;;9.27;7.73;;;;;;;14.81;89.86;100424.06;4910397;60;21131;-83
2021/08/30 04:19:40;;;;;;;9.43;7.57;;;;;;;14.82;89.80;100428.40;4925569;59;21173;-82
2021/08/30 04:24:46;;;;;;;8.67;7.73;;;;;;;14.84;90.01;100428.57;4985090;59;21127;-81
2021/08/30 04:29:52;;;;;;;8.00;6.13;;;;;;;14.84;89.92;100423.24;4984945;59;21233;-80
2021/08/30 04:34:57;;;;;;;25.60;8.93;;;;;;;14.81;90.05;100420.06;4984999;59;21247;-80
2021/08/30 04:40:04;;;;;;;7.90;7.10;;;;;;;14.75;90.14;100416.16;4995056;59;21127;-81
2021/08/30 04:45:11;;;;;;;11.03;8.93;;;;;;;14.83;90.68;100417.57;4997532;59;21639;-81
2021/08/30 04:50:17;;;;;;;9.57;8.47;;;;;;;14.89;90.94;100422.81;4997505;59;21182;-81
2021/08/30 04:55:24;;;;;;;10.43;8.07;;;;;;;14.95;90.99;100428.88;4997511;59;21244;-82
2021/08/30 05:00:30;;;;;;;32.00;14.83;;;;;;;15.05;91.34;100434.48;4997377;59;21458;-80
2021/08/30 05:05:35;;;;;;;10.80;7.53;;;;;;;15.20;91.31;100437.47;4997476;59;21185;-80
2021/08/30 05:10:41;;;;;;;9.20;7.17;;;;;;;15.24;90.66;100433.53;4997429;59;21178;-81
2021/08/30 05:15:46;;;;;;;13.73;7.13;;;;;;;15.17;90.21;100437.77;4997418;59;21587;-81
2021/08/30 05:20:53;;;;;;;7.60;6.90;;;;;;;15.08;90.45;100438.68;4991977;59;21523;-81
2021/08/30 05:25:59;;;;;;;11.70;7.53;;;;;;;15.14;90.95;100432.73;4923739;60;21642;-81
2021/08/30 05:31:06;;;;;;;10.17;8.10;;;;;;;15.16;90.58;100432.59;4923785;60;21187;-80
2021/08/30 05:36:12;;;;;;;12.90;8.80;;;;;;;15.10;90.53;100432.22;4923389;60;21126;-81
2021/08/30 05:41:18;;;;;;;8.93;7.90;;;;;;;15.04;90.82;100430.14;4923003;60;21185;-81
2021/08/30 05:46:23;;;;;;;11.67;7.27;;;;;;;15.04;90.97;100434.63;4923016;60;21583;-80
2021/08/30 05:51:29;;;;;;;9.80;8.80;;;;;;;15.06;91.22;100434.83;4923087;60;21197;-81
2021/08/30 05:56:35;;;;;;;9.93;8.50;;;;;;;15.13;91.55;100437.22;4923119;60;21177;-81
2021/08/30 06:01:41;;;;;;;10.13;8.30;;;;;;;15.22;91.42;100443.98;4923039;60;21583;-80
2021/08/30 06:06:47;;;;;;;7.60;6.47;;;;;;;15.28;91.58;100450.02;4922960;60;21533;-81
2021/08/30 06:11:52;;;;;;;9.67;8.67;;;;;;;15.29;91.23;100446.38;4922981;60;21184;-81
2021/08/30 06:16:58;;;;;;;11.33;9.10;;;;;;;15.35;91.61;100440.45;4924259;59;21221;-81
2021/08/30 06:22:06;;;;;;;12.13;8.87;;;;;;;15.36;91.59;100430.14;4998652;59;21185;-81
2021/08/30 06:27:11;;;;;;;12.03;9.13;;;;;;;15.32;91.44;100428.27;4997306;59;21190;-81
2021/08/30 06:32:18;;;;;;;15.53;9.87;;;;;;;15.24;91.45;100420.20;4997306;59;21178;-81
2021/08/30 06:37:23;;;;;;;26.77;12.10;;;;;;;15.22;91.77;100421.34;4997386;59;21196;-80
2021/08/30 06:42:29;;;;;;;13.13;8.60;;;;;;;15.29;92.20;100421.06;4984798;59;21178;-80
2021/08/30 06:47:36;;;;;;;9.77;8.20;;;;;;;15.33;92.34;100422.44;4984727;59;21222;-80
2021/08/30 06:52:42;;;;;;;10.53;7.10;;;;;;;15.42;92.70;100428.21;4984832;59;21190;-80
2021/08/30 06:57:47;;;;;;;8.23;7.43;;;;;;;15.45;92.21;100419.39;4985362;59;21193;-80
2021/08/30 07:02:54;;;;;;;13.27;7.87;;;;;;;15.52;92.59;100419.63;4985344;59;21226;-81
2021/08/30 07:07:59;;;;;;;10.97;8.13;;;;;;;15.54;92.45;100422.14;4952439;59;21180;-81
2021/08/30 07:13:05;;;;;;;9.27;7.50;;;;;;;15.52;92.78;100411.63;4949098;59;21593;-81
2021/08/30 07:18:11;;;;;;;9.57;7.57;;;;;;;15.63;93.58;100416.75;4950458;59;22361;-81
2021/08/30 07:23:18;;;;;;;9.60;7.73;;;;;;;15.73;93.34;100420.19;4956807;59;21189;-80
2021/08/30 07:28:26;;;;;;;6.73;6.13;;;;;;;15.87;93.58;100420.62;4921748;59;21134;-81
2021/08/30 07:33:31;;;;;;;7.37;6.57;;;;;;;15.98;93.13;100425.20;4911300;60;21652;-81
2021/08/30 07:38:38;;;;;;;7.43;6.73;;;;;;;16.08;93.18;100425.09;4912404;60;21220;-80
2021/08/30 07:43:43;;;;;;;5.80;5.20;;;;;;;16.11;92.47;100426.95;4923530;60;21241;-80
2021/08/30 07:48:49;;;;;;;6.43;5.80;;;;;;;16.09;92.36;100426.27;4923494;60;21192;-80
2021/08/30 07:53:57;;;;;;;6.73;5.90;;;;;;;16.07;92.55;100424.74;4923453;60;22134;-80
2021/08/30 07:59:02;;;;;;;6.30;5.70;;;;;;;16.12;93.01;100435.30;4923404;60;21659;-80
2021/08/30 08:04:08;;;;;;;6.47;5.70;;;;;;;16.29;93.21;100432.73;4923446;60;21181;-81
2021/08/30 08:09:14;;;;;;;7.10;6.40;;;;;;;16.42;93.01;100431.80;4923319;60;22116;-81
2021/08/30 08:14:20;;;;;;;8.30;5.30;;;;;;;16.47;92.50;100432.17;4923392;60;21122;-80
2021/08/30 08:19:26;;;;;;;6.57;5.93;;;;;;;16.45;92.30;100425.66;4934172;59;21170;-81
2021/08/30 08:24:32;;;;;;;5.60;5.10;;;;;;;16.50;92.31;100430.50;4997638;59;21178;-81
2021/08/30 08:29:38;;;;;;;8.03;5.50;;;;;;;16.58;92.37;100438.56;4997477;59;21178;-81
2021/08/30 08:34:44;;;;;;;6.53;5.93;;;;;;;16.66;92.47;100433.77;4997702;59;21226;-80
2021/08/30 08:39:50;;;;;;;8.60;7.63;;;;;;;16.67;91.92;100438.13;4975755;59;21213;-81
2021/08/30 08:50:20;;;;;;;8.47;5.93;;;;;;;16.72;91.92;100427.31;5406271;55;21050;-79
2021/08/30 08:55:26;;;;;;;5.63;5.10;;;;;;;16.77;92.17;100435.69;5104932;57;22400;-78
2021/08/30 09:00:32;;;;;;;9.93;5.37;;;;;;;16.86;91.68;100433.37;5156242;57;21558;-79
2021/08/30 09:05:38;;;;;;;7.13;5.77;;;;;;;16.82;91.48;100434.68;5106296;58;21169;-79
2021/08/30 09:10:46;;;;;;;5.10;4.40;;;;;;;16.95;92.09;100428.91;5156065;57;21117;-78
2021/08/30 09:15:51;;;;;;;7.37;5.20;;;;;;;17.13;91.91;100424.75;5106020;58;21162;-79
2021/08/30 09:21:00;;;;;;;5.07;4.23;;;;;;;17.17;91.34;100426.95;5127790;57;21609;-79
2021/08/30 09:26:05;;;;;;;5.80;5.23;;;;;;;17.26;91.31;100428.32;5104450;57;21186;-81
2021/08/30 09:31:11;;;;;;;4.47;4.07;;;;;;;17.37;90.87;100425.32;5181274;56;22591;-81
2021/08/30 09:36:17;;;;;;;6.37;4.40;;;;;;;17.42;90.91;100417.12;5175969;56;21120;-81
2021/08/30 09:41:23;;;;;;;4.53;3.97;;;;;;;17.51;91.03;100417.48;5167062;56;21164;-80
2021/08/30 09:46:31;;;;;;;4.83;4.33;;;;;;;17.63;90.88;100411.80;5168542;56;21123;-81
2021/08/30 09:51:41;;;;;;;10.17;5.47;;;;;;;17.66;90.41;100411.50;5162802;56;21171;-80
2021/08/30 09:56:49;;;;;;;4.40;3.50;;;;;;;17.67;90.14;100415.34;5169506;56;21502;-81
2021/08/30 10:01:57;;;;;;;5.03;3.50;;;;;;;17.73;89.68;100420.51;5060408;58;21194;-81
2021/08/30 10:07:04;;;;;;;4.63;3.43;;;;;;;17.75;89.12;100413.16;5214168;56;21629;-81
2021/08/30 10:12:10;;;;;;;4.33;3.87;;;;;;;17.72;89.02;100415.66;5225042;56;21197;-80
2021/08/30 10:17:19;;;;;;;4.80;3.57;;;;;;;17.80;88.94;100430.89;5235134;56;21303;-80
2021/08/30 10:22:25;;;;;;;6.57;3.93;;;;;;;17.84;88.00;100415.68;5262257;56;22407;-80
2021/08/30 10:27:34;;;;;;;6.17;3.63;;;;;;;17.85;87.25;100417.85;5233266;56;21736;-80
2021/08/30 10:32:45;;;;;;;5.50;4.60;;;;;;;17.87;87.08;100417.19;5221601;56;21151;-80
2021/08/30 10:38:01;;;;;;;6.08;4.87;;;;;;;17.87;86.85;100417.99;5223313;56;21224;-80
2021/08/30 10:43:16;;;;;;;7.73;5.93;;;;;;;17.86;87.15;100412.34;5214529;56;21145;-81
2021/08/30 10:48:22;;;;;;;14.77;7.47;;;;;;;17.84;86.48;100418.35;5226432;56;21195;-80
2021/08/30 10:53:28;;;;;;;8.47;6.30;;;;;;;17.75;85.98;100419.34;5226426;56;21211;-80
2021/08/30 10:58:34;;;;;;;7.63;6.50;;;;;;;17.71;86.06;100422.05;5227472;56;21473;-80
2021/08/30 11:03:40;;;;;;;10.77;6.97;;;;;;;17.66;85.79;100415.02;5247184;56;21405;-81
2021/08/30 11:08:46;;;;;;;9.83;8.60;;;;;;;17.67;85.75;100423.87;5267822;56;21207;-80
2021/08/30 11:14:10;;;;;;;6.77;5.93;;;;;;;17.74;86.24;100424.36;5267938;56;21179;-81
2021/08/30 11:19:17;;;;;;;11.13;9.50;;;;;;;17.78;85.53;100420.85;5258008;56;21170;-80
2021/08/30 11:24:39;;;;;;;10.23;6.43;;;;;;;17.83;85.44;100422.53;5180595;57;21708;-82
2021/08/30 11:29:52;;;;;;;7.10;6.08;;;;;;;17.90;85.45;100414.15;5180952;57;21572;-81
2021/08/30 11:34:59;;;;;;;7.20;5.43;;;;;;;18.02;85.82;100413.32;5223562;56;21054;-83
2021/08/30 11:40:15;;;;;;;7.00;5.50;;;;;;;18.09;85.56;100414.30;5275243;56;21172;-83
2021/08/30 11:45:24;;;;;;;7.40;5.93;;;;;;;18.17;84.74;100416.98;5270554;56;21237;-84
2021/08/30 11:50:28;;;;;;;7.80;5.80;;;;;;;18.25;84.46;100414.27;5242540;55;21132;-85
2021/08/30 11:55:34;;;;;;;6.30;5.60;;;;;;;18.33;84.51;100408.91;5226715;55;21188;-85
2021/08/30 12:00:39;;;;;;;8.20;6.83;;;;;;;18.42;83.88;100409.20;5222991;55;21658;-85
2021/08/30 12:05:46;;;;;;;11.40;6.77;;;;;;;18.43;83.54;100395.31;5227444;56;21788;-86
2021/08/30 12:10:52;;;;;;;8.97;7.17;;;;;;;18.49;83.74;100398.62;5223470;56;21247;-86
2021/08/30 12:15:58;;;;;;;14.15;8.05;;;;;;;18.53;83.32;100398.61;5223216;56;21183;-86
2021/08/30 12:21:04;;;;;;;8.03;6.45;;;;;;;18.57;83.51;100394.08;5204914;56;21795;-87
2021/08/30 12:26:11;;;;;;;8.83;7.53;;;;;;;18.61;83.50;100391.42;5221759;56;21546;-87
2021/08/30 12:31:32;;;;;;;10.30;8.50;;;;;;;18.67;83.36;100390.38;5230763;56;21113;-87
2021/08/30 12:36:39;;;;;;;10.23;9.17;;;;;;;18.74;83.47;100392.20;5261434;56;21472;-88
2021/08/30 12:41:44;;;;;;;9.65;7.83;;;;;;;18.75;83.67;100380.98;5250834;56;21553;-82
2021/08/30 12:46:50;;;;;;;9.58;7.75;;;;;;;18.80;83.81;100380.77;5187351;55;21247;-80
2021/08/30 12:51:55;;;;;;;10.82;9.68;;;;;;;18.79;83.60;100374.27;5206791;57;21214;-83
2021/08/30 12:57:01;;;;;;;8.90;8.00;;;;;;;18.78;83.77;100372.09;5217165;57;21481;-80
2021/08/30 13:02:07;;;;;;;13.68;9.35;;;;;;;18.86;83.57;100372.03;5216256;57;21177;-80
2021/08/30 13:07:13;;;;;;;8.35;7.55;;;;;;;18.87;83.45;100371.53;5214765;57;21174;-82
2021/08/30 13:12:18;;;;;;;9.23;7.30;;;;;;;18.94;83.50;100375.19;5214771;57;21218;-80
2021/08/30 13:17:24;;;;;;;7.35;6.65;;;;;;;18.97;83.15;100370.80;5214680;57;21543;-82
2021/08/30 13:22:30;;;;;;;6.92;6.22;;;;;;;19.10;83.42;100363.50;5253159;56;21211;-83
2021/08/30 13:27:36;;;;;;;6.55;5.95;;;;;;;19.20;82.73;100364.12;5264556;56;21670;-83
2021/08/30 13:32:43;;;;;;;3.95;3.75;;;;;;;19.19;81.86;100357.92;5225968;56;21245;-81
2021/08/30 13:37:49;;;;;;;8.20;5.42;;;;;;;19.28;81.62;100362.20;5182371;57;21710;-81
2021/08/30 13:42:55;;;;;;;7.55;4.60;;;;;;;19.35;81.12;100366.86;5182998;57;21242;-83
2021/08/30 13:48:01;;;;;;;4.15;3.85;;;;;;;19.40;80.33;100360.47;5182678;57;21214;-81
2021/08/30 13:53:07;;;;;;;4.95;4.55;;;;;;;19.44;78.75;100362.59;5180154;56;21210;-82
2021/08/30 13:58:13;;;;;;;4.40;4.00;;;;;;;19.33;77.69;100362.52;5179710;57;21276;-83
2021/08/30 14:03:19;;;;;;;7.00;4.47;;;;;;;19.31;78.33;100358.34;5179841;57;21192;-81
2021/08/30 14:08:25;;;;;;;3.65;3.35;;;;;;;19.43;78.46;100360.08;5179909;57;22413;-86
2021/08/30 14:13:31;;;;;;;4.55;2.90;;;;;;;19.51;77.19;100362.23;5179758;57;21216;-82
2021/08/30 14:18:38;;;;;;;3.33;3.05;;;;;;;19.46;76.31;100361.91;5179700;57;21446;-81
2021/08/30 14:23:43;;;;;;;4.30;4.00;;;;;;;19.48;76.68;100358.53;5302127;56;21844;-83
2021/08/30 14:28:49;;;;;;;6.28;4.95;;;;;;;19.58;77.26;100355.63;5242999;56;21125;-79
2021/08/30 14:33:55;;;;;;;5.62;5.12;;;;;;;19.69;77.76;100359.23;5212061;56;21188;-82
2021/08/30 14:39:01;;;;;;;6.58;5.28;;;;;;;19.76;77.33;100358.81;5226364;56;21156;-81
2021/08/30 14:44:07;;;;;;;6.87;5.70;;;;;;;19.85;77.95;100359.59;5220241;56;22405;-80
2021/08/30 14:49:13;;;;;;;8.05;4.47;;;;;;;19.93;78.00;100352.78;5221001;56;21183;-83
2021/08/30 14:54:19;;;;;;;5.90;4.28;;;;;;;19.97;77.14;100347.38;5231431;56;21177;-80
2021/08/30 14:59:25;;;;;;;6.60;5.97;;;;;;;19.84;76.28;100348.02;5222778;56;21184;-81
2021/08/30 15:04:31;;;;;;;4.78;3.98;;;;;;;19.73;77.20;100351.12;5222560;56;21217;-82
2021/08/30 15:09:36;;;;;;;8.83;4.47;;;;;;;19.70;76.67;100353.36;5221842;56;21179;-81
2021/08/30 15:14:42;;;;;;;4.85;4.45;;;;;;;19.63;77.02;100349.22;5227860;56;21218;-82
2021/08/30 15:19:48;;;;;;;4.92;4.15;;;;;;;19.63;77.44;100341.17;5218889;56;21172;-82
2021/08/30 15:24:53;;;;;;;5.87;5.00;;;;;;;19.63;77.68;100354.08;5222968;56;21535;-81
2021/08/30 15:30:01;;;;;;;5.92;3.77;;;;;;;19.62;77.35;100356.94;5204512;56;21172;-80
2021/08/30 15:35:08;;;;;;;9.58;5.15;;;;;;;19.53;77.42;100358.87;5189406;57;21216;-82
2021/08/30 15:40:14;;;;;;;7.28;4.60;;;;;;;19.52;77.87;100369.27;5189295;57;21522;-84
2021/08/30 15:45:20;;;;;;;6.70;4.17;;;;;;;19.58;78.07;100375.74;5189425;57;21097;-82
2021/08/30 15:50:28;;;;;;;4.87;4.20;;;;;;;19.58;78.00;100371.21;5189211;57;21105;-81
2021/08/30 15:55:33;;;;;;;3.75;3.47;;;;;;;19.53;77.96;100370.94;5195850;56;21158;-82
2021/08/30 16:00:40;;;;;;;4.33;3.75;;;;;;;19.49;77.82;100362.92;5189438;56;21810;-82
2021/08/30 16:05:46;;;;;;;4.37;3.98;;;;;;;19.47;78.05;100361.39;5189402;56;21196;-80
2021/08/30 16:10:54;;;;;;;3.98;3.75;;;;;;;19.37;78.04;100352.77;5189391;56;21098;-84
2021/08/30 16:16:01;;;;;;;3.02;2.83;;;;;;;19.33;78.39;100350.44;5189664;56;21650;-83
2021/08/30 16:21:07;;;;;;;3.87;3.60;;;;;;;19.33;78.32;100358.99;5231869;56;21692;-82
2021/08/30 16:26:13;;;;;;;2.90;2.70;;;;;;;19.29;78.59;100348.29;5276748;55;21491;-80
2021/08/30 16:31:19;;;;;;;2.67;2.52;;;;;;;19.25;78.52;100344.29;5276627;56;21145;-82
2021/08/30 16:36:24;;;;;;;2.60;2.42;;;;;;;19.23;78.61;100339.64;5254087;55;21155;-80
2021/08/30 16:41:32;;;;;;;2.98;2.77;;;;;;;19.25;79.22;100336.25;5232393;56;21089;-83
2021/08/30 16:46:39;;;;;;;5.00;4.47;;;;;;;19.28;79.32;100334.05;5244785;56;21144;-79
2021/08/30 16:51:44;;;;;;;5.70;4.72;;;;;;;19.28;79.05;100329.19;5257730;56;21500;-82
2021/08/30 16:56:50;;;;;;;6.75;6.03;;;;;;;19.24;79.24;100329.24;5236482;56;21089;-80
2021/08/30 17:01:56;;;;;;;6.12;5.53;;;;;;;19.20;79.40;100338.66;5243908;56;21981;-83
2021/08/30 17:07:03;;;;;;;9.58;6.53;;;;;;;19.24;79.26;100339.97;5210145;56;45098;-78
2021/08/30 17:12:09;;;;;;;11.70;7.97;;;;;;;19.22;79.24;100336.13;5149904;56;30673;-80
2021/08/30 17:17:15;;;;;;;10.63;8.50;;;;;;;19.19;79.28;100324.41;5141975;56;21145;-82
2021/08/30 17:22:21;;;;;;;7.15;5.45;;;;;;;19.14;79.46;100334.83;5199411;56;21075;-81
2021/08/30 17:27:26;;;;;;;12.63;6.42;;;;;;;19.08;79.33;100335.56;5126753;57;21173;-82
2021/08/30 17:32:32;;;;;;;21.60;17.17;;;;;;;19.08;79.60;100341.42;5186989;57;21083;-81
2021/08/30 17:37:39;;;;;;;24.72;20.80;;;;;;;19.11;79.64;100331.16;5206771;57;21159;-83
2021/08/30 17:42:44;;;;;;;27.17;19.07;;;;;;;19.11;79.49;100331.66;5155091;56;21150;-82
2021/08/30 17:47:51;;;;;;;24.15;16.17;;;;;;;19.07;79.60;100337.08;5140330;56;21143;-81
2021/08/30 17:52:57;;;;;;;28.35;19.23;;;;;;;19.03;79.75;100335.75;5179844;56;21138;-82
2021/08/30 17:58:03;;;;;;;21.87;13.85;;;;;;;18.95;79.48;100328.08;5142165;56;21146;-80
2021/08/30 18:03:09;;;;;;;21.15;13.30;;;;;;;18.89;79.34;100337.36;5167101;56;21135;-80
2021/08/30 18:08:15;;;;;;;57.53;33.15;;;;;;;18.83;79.96;100337.55;5145313;56;21162;-82
2021/08/30 18:13:21;;;;;;;31.85;23.10;;;;;;;18.81;80.07;100327.51;5144049;56;21149;-80
2021/08/30 18:18:28;;;;;;;35.80;32.33;;;;;;;18.77;80.35;100329.40;5144228;56;21098;-82
2021/08/30 18:23:35;;;;;;;16.00;11.00;;;;;;;18.80;80.32;100337.89;5291607;56;21980;-81
2021/08/30 18:28:43;;;;;;;11.57;7.55;;;;;;;18.71;80.38;100331.43;5295772;56;22038;-80
2021/08/30 18:33:49;;;;;;;13.22;12.03;;;;;;;18.58;80.62;100340.01;5295717;56;21160;-81
2021/08/30 18:38:54;;;;;;;115.35;88.70;;;;;;;18.54;81.12;100344.88;5138182;55;21528;-83
2021/08/30 18:44:00;;;;;;;8.23;5.62;;;;;;;18.51;81.56;100349.73;5156169;57;21153;-83
2021/08/30 18:49:06;;;;;;;17.20;15.30;;;;;;;18.40;82.02;100346.95;5148965;56;21832;-81
2021/08/30 18:54:12;;;;;;;15.93;13.43;;;;;;;18.36;82.54;100347.45;5173463;57;21620;-82
2021/08/30 18:59:17;;;;;;;52.80;41.08;;;;;;;18.32;82.93;100349.67;5103285;57;1137730;-82
2021/08/30 19:04:23;;;;;;;41.68;31.00;;;;;;;18.31;83.23;100338.63;5164739;57;21160;-83
2021/08/30 19:09:28;;;;;;;36.40;30.70;;;;;;;18.33;83.44;100336.61;5165605;57;21169;-81
2021/08/30 19:14:34;;;;;;;9.96;8.54;;;;;;;18.28;83.52;100341.14;5134806;57;1140066;-82
2021/08/30 19:19:40;;;;;;;7.42;6.65;;;;;;;18.23;84.02;100339.98;5070257;58;21878;-81
2021/08/30 19:24:46;;;;;;;8.75;6.35;;;;;;;18.19;84.45;100345.34;5060948;58;21205;-83
2021/08/30 19:29:52;;;;;;;3.83;3.47;;;;;;;18.21;85.11;100344.16;5061181;58;21222;-82
2021/08/30 19:34:58;;;;;;;6.30;3.92;;;;;;;18.27;85.50;100341.31;5061840;58;21576;-80
2021/08/30 19:40:06;;;;;;;5.17;4.30;;;;;;;18.33;85.88;100346.49;5060090;58;21688;-83
2021/08/30 19:45:12;;;;;;;7.97;6.17;;;;;;;18.34;85.89;100345.45;5029164;58;21213;-83
2021/08/30 19:50:17;;;;;;;7.67;4.95;;;;;;;18.31;85.94;100348.00;4996194;58;22374;-84
2021/08/30 19:55:23;;;;;;;9.10;5.20;;;;;;;18.30;86.06;100352.19;5056488;57;21322;-83
2021/08/30 20:00:30;;;;;;;20.57;10.45;;;;;;;18.25;86.11;100348.67;5076343;57;22614;-85
2021/08/30 20:05:36;;;;;;;27.15;18.12;;;;;;;18.18;86.19;100359.76;5118748;57;21200;-84
2021/08/30 20:10:41;;;;;;;31.95;23.80;;;;;;;18.11;86.37;100356.92;5094156;57;21194;-83
2021/08/30 20:15:47;;;;;;;30.70;21.60;;;;;;;18.00;86.50;100361.80;5072633;57;21163;-83
2021/08/30 20:20:55;;;;;;;12.10;8.50;;;;;;;17.93;86.74;100362.48;5089523;58;21212;-83
2021/08/30 20:26:00;;;;;;;28.57;15.53;;;;;;;17.91;86.97;100364.48;5133250;58;21533;-83
2021/08/30 20:31:06;;;;;;;16.53;10.90;;;;;;;17.87;86.74;100363.14;5133125;58;21112;-84
2021/08/30 20:36:12;;;;;;;26.20;14.43;;;;;;;17.84;87.11;100355.48;5132461;58;21546;-85
2021/08/30 20:41:18;;;;;;;18.17;12.97;;;;;;;17.81;87.25;100358.48;5132401;58;21647;-84
2021/08/30 20:46:24;;;;;;;4.37;3.57;;;;;;;17.79;87.45;100356.48;5132044;58;21206;-82
2021/08/30 20:51:30;;;;;;;4.87;3.47;;;;;;;17.64;87.54;100360.84;5132218;58;21112;-82
2021/08/30 20:56:35;;;;;;;11.77;7.30;;;;;;;17.56;88.07;100368.36;5137050;57;21096;-84
2021/08/30 21:01:41;;;;;;;10.00;4.77;;;;;;;17.44;88.08;100365.66;5142361;57;21111;-83
2021/08/30 21:06:47;;;;;;;6.10;3.03;;;;;;;17.35;88.47;100357.81;5143067;57;21108;-82
2021/08/30 21:11:53;;;;;;;3.37;2.90;;;;;;;17.32;88.70;100358.97;5143123;57;21162;-82
2021/08/30 21:16:58;;;;;;;13.77;8.47;;;;;;;17.26;88.99;100358.32;5143153;57;21183;-83
2021/08/30 21:22:04;;;;;;;53.20;29.83;;;;;;;17.24;89.16;100362.99;5146984;57;21211;-82
2021/08/30 21:27:09;;;;;;;40.73;22.20;;;;;;;17.28;89.21;100352.78;5148846;57;21188;-82
2021/08/30 21:32:15;;;;;;;29.20;15.03;;;;;;;17.28;89.30;100360.30;5148758;57;21164;-85
2021/08/30 21:37:21;;;;;;;17.40;9.30;;;;;;;17.20;89.16;100354.96;5149293;57;21184;-83
2021/08/30 21:42:27;;;;;;;9.83;4.77;;;;;;;17.07;89.48;100353.28;5149569;57;21199;-84
2021/08/30 21:47:32;;;;;;;15.50;8.73;;;;;;;17.01;89.43;100348.08;5149291;57;21160;-84
2021/08/30 21:52:39;;;;;;;40.87;21.60;;;;;;;17.03;89.85;100342.08;5148854;57;21161;-84
2021/08/30 21:57:44;;;;;;;16.43;7.60;;;;;;;17.07;89.65;100351.95;5156438;57;21236;-85
2021/08/30 22:02:50;;;;;;;6.83;4.40;;;;;;;17.03;89.92;100351.93;5161377;57;21524;-86
2021/08/30 22:07:56;;;;;;;12.60;8.13;;;;;;;17.09;90.17;100348.11;5161599;57;21117;-86
2021/08/30 22:13:02;;;;;;;30.60;13.60;;;;;;;17.11;89.96;100350.62;5161554;57;21168;-83
2021/08/30 22:18:07;;;;;;;25.33;13.47;;;;;;;17.05;89.84;100349.44;5161693;57;21172;-84
2021/08/30 22:23:14;;;;;;;18.80;10.97;;;;;;;16.95;89.85;100338.58;5135856;57;21241;-84
2021/08/30 22:28:19;;;;;;;32.37;14.57;;;;;;;16.83;89.97;100337.52;5133528;58;21159;-84
2021/08/30 22:33:25;;;;;;;29.10;15.43;;;;;;;16.75;90.20;100328.17;5133439;58;21123;-85
2021/08/30 22:38:31;;;;;;;7.77;6.40;;;;;;;16.70;90.53;100333.16;5133239;58;21647;-84
2021/08/30 22:43:37;;;;;;;34.60;19.63;;;;;;;16.66;90.84;100336.30;5133294;58;21584;-85
2021/08/30 22:48:43;;;;;;;37.00;17.63;;;;;;;16.70;91.02;100334.98;5133516;58;21643;-82
2021/08/30 22:53:49;;;;;;;34.33;14.23;;;;;;;16.71;91.33;100335.33;5133370;58;21163;-85
2021/08/30 22:58:54;;;;;;;27.10;14.00;;;;;;;16.61;91.06;100335.45;5139959;57;21653;-86
2021/08/30 23:04:00;;;;;;;45.57;21.80;;;;;;;16.61;91.24;100336.78;5143455;57;21170;-84
2021/08/30 23:09:12;;;;;;;50.40;25.30;;;;;;;16.53;91.40;100330.06;5143364;57;21174;-83
2021/08/30 23:14:20;;;;;;;29.27;15.10;;;;;;;16.47;91.43;100332.06;5142912;57;22109;-84
2021/08/30 23:19:22;;;;;;;49.50;23.37;;;;;;;16.53;91.65;100330.91;5143152;57;21221;-83
2021/08/30 23:24:27;;;;;;;37.87;21.67;;;;;;;16.48;91.42;100333.73;5148966;57;21625;-85
2021/08/30 23:29:33;;;;;;;26.17;15.70;;;;;;;16.39;91.45;100328.85;5149521;57;21177;-86
2021/08/30 23:34:39;;;;;;;11.90;9.03;;;;;;;16.35;91.81;100321.31;5142633;57;21603;-82
2021/08/30 23:39:48;;;;;;;39.57;20.80;;;;;;;16.38;92.05;100323.67;5138660;57;21200;-85